createdAt,value
2022-08-11T00:01:59.132Z,19.48
2022-08-11T00:05:05.744Z,19.46
2022-08-11T00:08:10.879Z,19.43
2022-08-11T00:11:13.815Z,19.51
2022-08-11T00:14:19.008Z,19.52
2022-08-11T00:17:28.905Z,19.73
2022-08-11T00:20:33.246Z,19.85
2022-08-11T00:23:42.245Z,19.72
2022-08-11T00:26:49.786Z,19.52
2022-08-11T00:29:54.966Z,19.37
2022-08-11T00:32:58.838Z,19.19
2022-08-11T00:36:02.759Z,19.24
2022-08-11T00:39:08.299Z,19.27
2022-08-11T00:42:17.699Z,19.53
2022-08-11T00:45:25.854Z,19.36
2022-08-11T00:48:31.055Z,19.39
2022-08-11T00:52:03.887Z,19.49
2022-08-11T00:55:55.572Z,19.55
2022-08-11T00:59:35.076Z,19.53
2022-08-11T01:02:49.562Z,19.40
2022-08-11T01:06:01.699Z,18.98
2022-08-11T01:09:35.783Z,18.77
2022-08-11T01:12:46.961Z,18.69
2022-08-11T01:16:12.415Z,18.57
2022-08-11T01:20:38.515Z,18.46
2022-08-11T01:23:36.683Z,18.54
2022-08-11T01:27:19.040Z,18.53
2022-08-11T01:31:05.817Z,18.48
2022-08-11T01:34:56.884Z,18.41
2022-08-11T01:38:28.429Z,18.48
2022-08-11T01:42:00.929Z,18.50
2022-08-11T01:45:19.925Z,18.33
2022-08-11T01:48:33.761Z,18.39
2022-08-11T01:51:47.650Z,18.35
2022-08-11T01:54:57.746Z,18.19
2022-08-11T01:58:09.139Z,18.41
2022-08-11T02:01:21.831Z,18.39
2022-08-11T02:04:31.226Z,18.35
2022-08-11T02:07:37.222Z,18.16
2022-08-11T02:11:12.808Z,17.95
2022-08-11T02:14:25.332Z,17.92
2022-08-11T02:17:41.553Z,17.77
2022-08-11T02:21:05.955Z,17.78
2022-08-11T02:24:15.632Z,17.95
2022-08-11T02:27:23.468Z,18.05
2022-08-11T02:30:27.205Z,18.15
2022-08-11T02:33:34.466Z,17.99
2022-08-11T02:36:44.281Z,17.69
2022-08-11T02:40:12.002Z,17.55
2022-08-11T02:43:25.578Z,17.59
2022-08-11T02:46:28.644Z,17.59
2022-08-11T02:50:02.642Z,17.66
2022-08-11T02:53:15.364Z,17.61
2022-08-11T02:56:23.814Z,17.51
2022-08-11T02:59:52.367Z,17.38
2022-08-11T03:03:17.244Z,17.31
2022-08-11T03:06:31.072Z,17.25
2022-08-11T03:09:45.530Z,17.20
2022-08-11T03:13:11.319Z,17.11
2022-08-11T03:16:43.265Z,17.02
2022-08-11T03:19:50.647Z,16.96
2022-08-11T03:23:01.784Z,16.99
2022-08-11T03:26:08.695Z,17.06
2022-08-11T03:29:25.023Z,16.97
2022-08-11T03:32:32.048Z,16.97
2022-08-11T03:35:37.940Z,17.00
2022-08-11T03:38:51.463Z,17.09
2022-08-11T03:42:03.936Z,17.13
2022-08-11T03:45:19.079Z,17.18
2022-08-11T03:48:26.751Z,17.07
2022-08-11T03:51:44.589Z,17.09
2022-08-11T03:55:02.868Z,17.06
2022-08-11T03:58:38.153Z,17.09
2022-08-11T04:02:20.593Z,17.19
2022-08-11T04:06:07.369Z,17.15
2022-08-11T04:10:00.324Z,17.23
2022-08-11T04:13:40.796Z,17.10
2022-08-11T04:16:45.202Z,17.10
2022-08-11T04:20:06.950Z,16.98
2022-08-11T04:24:33.353Z,17.09
2022-08-11T04:27:37.214Z,17.12
2022-08-11T04:30:56.580Z,17.11
2022-08-11T04:34:20.580Z,17.03
2022-08-11T04:37:53.494Z,16.97
2022-08-11T04:41:21.773Z,17.05
2022-08-11T04:45:00.884Z,17.14
2022-08-11T04:48:42.745Z,17.14
2022-08-11T04:52:36.010Z,17.18
2022-08-11T04:56:18.239Z,17.26
2022-08-11T04:59:59.581Z,17.33
2022-08-11T05:03:38.067Z,17.45
2022-08-11T05:07:09.454Z,17.57
2022-08-11T05:10:21.139Z,17.66
2022-08-11T05:13:46.913Z,17.72
2022-08-11T05:17:09.863Z,17.81
2022-08-11T05:20:31.535Z,18.03
2022-08-11T05:23:53.311Z,18.07
2022-08-11T05:27:14.133Z,18.17
2022-08-11T05:30:36.138Z,18.28
2022-08-11T05:34:06.891Z,18.34
2022-08-11T05:37:26.707Z,18.41
2022-08-11T05:40:51.246Z,18.47
2022-08-11T05:44:20.330Z,18.56
2022-08-11T05:47:45.309Z,18.66
2022-08-11T05:51:11.291Z,18.81
2022-08-11T05:54:35.233Z,18.99
2022-08-11T05:57:50.750Z,19.12
2022-08-11T06:00:54.807Z,19.25
2022-08-11T06:04:15.860Z,19.35
2022-08-11T06:07:18.730Z,19.50
2022-08-11T06:10:30.092Z,19.70
2022-08-11T06:13:33.856Z,19.88
2022-08-11T06:16:36.705Z,20.03
2022-08-11T06:19:41.879Z,20.27
2022-08-11T06:22:52.375Z,20.45
2022-08-11T06:25:56.411Z,20.64
2022-08-11T06:29:01.778Z,20.75
2022-08-11T06:32:06.652Z,20.89
2022-08-11T06:35:19.423Z,21.06
2022-08-11T06:38:38.071Z,21.16
2022-08-11T06:41:46.992Z,21.30
2022-08-11T06:45:05.326Z,21.49
2022-08-11T06:48:11.197Z,21.61
2022-08-11T06:51:14.305Z,21.73
2022-08-11T06:54:17.074Z,21.80
2022-08-11T06:57:38.320Z,21.97
2022-08-11T07:00:41.848Z,22.10
2022-08-11T07:03:46.693Z,22.20
2022-08-11T07:07:25.373Z,22.38
2022-08-11T07:10:54.581Z,22.59
2022-08-11T07:14:18.638Z,22.70
2022-08-11T07:17:23.931Z,22.81
2022-08-11T07:20:44.249Z,23.02
2022-08-11T07:24:05.829Z,23.28
2022-08-11T07:27:34.983Z,23.33
2022-08-11T07:30:40.825Z,23.50
2022-08-11T07:34:07.042Z,23.62
2022-08-11T07:37:12.664Z,23.76
2022-08-11T07:40:21.928Z,23.95
2022-08-11T07:43:24.716Z,23.98
2022-08-11T07:46:45.035Z,24.05
2022-08-11T07:50:07.956Z,24.23
2022-08-11T07:53:11.428Z,24.27
2022-08-11T07:56:17.307Z,24.53
2022-08-11T08:00:04.086Z,24.70
2022-08-11T08:03:23.981Z,24.82
2022-08-11T08:06:45.273Z,25.02
2022-08-11T08:10:06.100Z,25.11
2022-08-11T08:13:27.929Z,25.26
2022-08-11T08:16:49.457Z,25.33
2022-08-11T08:19:52.265Z,25.45
2022-08-11T08:22:57.495Z,25.54
2022-08-11T08:26:01.508Z,25.78
2022-08-11T08:29:25.106Z,25.92
2022-08-11T08:32:28.689Z,26.01
2022-08-11T08:35:32.996Z,26.06
2022-08-11T08:38:35.925Z,26.31
2022-08-11T08:41:39.660Z,26.40
2022-08-11T08:44:46.635Z,26.35
2022-08-11T08:47:53.832Z,26.40
2022-08-11T08:51:17.694Z,26.45
2022-08-11T08:54:28.563Z,26.29
2022-08-11T08:57:39.228Z,26.55
2022-08-11T09:00:46.154Z,26.90
2022-08-11T09:04:05.182Z,26.89
2022-08-11T09:07:13.390Z,27.03
2022-08-11T09:10:17.527Z,27.07
2022-08-11T09:13:20.530Z,27.11
2022-08-11T09:16:25.367Z,27.06
2022-08-11T09:19:28.026Z,27.06
2022-08-11T09:23:19.269Z,27.22
2022-08-11T09:26:32.374Z,27.22
2022-08-11T09:29:35.229Z,27.33
2022-08-11T09:32:40.409Z,27.47
2022-08-11T09:35:46.668Z,27.57
2022-08-11T09:39:07.246Z,27.76
2022-08-11T09:42:11.241Z,27.59
2022-08-11T09:45:14.106Z,27.85
2022-08-11T09:48:18.808Z,27.94
2022-08-11T09:51:22.787Z,27.82
2022-08-11T09:54:26.538Z,27.94
2022-08-11T09:57:47.859Z,28.16
2022-08-11T10:00:52.087Z,28.09
2022-08-11T10:04:01.746Z,28.32
2022-08-11T10:07:08.945Z,28.50
2022-08-11T10:10:12.084Z,28.54
2022-08-11T10:14:32.252Z,28.59
2022-08-11T10:16:41.178Z,28.65
2022-08-11T10:20:03.820Z,28.51
2022-08-11T10:23:27.157Z,28.63
2022-08-11T10:26:48.657Z,28.74
2022-08-11T10:30:09.839Z,28.81
2022-08-11T10:33:36.946Z,28.79
2022-08-11T10:36:47.188Z,28.80
2022-08-11T10:39:52.893Z,29.12
2022-08-11T10:43:06.822Z,29.19
2022-08-11T10:46:30.177Z,29.11
2022-08-11T10:49:33.840Z,29.13
2022-08-11T10:52:56.841Z,29.03
2022-08-11T10:56:16.694Z,29.02
2022-08-11T10:59:19.706Z,28.99
2022-08-11T11:02:22.777Z,28.92
2022-08-11T11:05:30.583Z,28.70
2022-08-11T11:08:57.630Z,28.90
2022-08-11T11:12:25.799Z,29.00
2022-08-11T11:15:49.745Z,29.33
2022-08-11T11:19:00.569Z,29.32
2022-08-11T11:22:23.617Z,29.26
2022-08-11T11:25:34.196Z,29.48
2022-08-11T11:28:52.663Z,29.40
2022-08-11T11:32:07.213Z,29.69
2022-08-11T11:35:26.704Z,29.79
2022-08-11T11:38:29.906Z,29.89
2022-08-11T11:41:34.131Z,29.96
2022-08-11T11:44:38.510Z,29.99
2022-08-11T11:47:42.140Z,29.85
2022-08-11T11:50:44.920Z,30.09
2022-08-11T11:53:48.306Z,30.20
2022-08-11T11:56:53.308Z,30.37
2022-08-11T12:00:14.368Z,30.14
2022-08-11T12:03:17.995Z,30.23
2022-08-11T12:06:22.492Z,30.37
2022-08-11T12:09:25.755Z,30.31
2022-08-11T12:12:47.646Z,30.27
2022-08-11T12:16:31.803Z,30.16
2022-08-11T12:19:15.128Z,30.41
2022-08-11T12:22:35.505Z,30.50
2022-08-11T12:26:23.302Z,30.83
2022-08-11T12:29:21.548Z,30.96
2022-08-11T12:32:26.127Z,31.00
2022-08-11T12:35:28.884Z,31.19
2022-08-11T12:38:32.309Z,31.22
2022-08-11T12:41:53.843Z,31.39
2022-08-11T12:45:22.335Z,31.86
2022-08-11T12:49:00.392Z,31.77
2022-08-11T12:52:14.819Z,31.78
2022-08-11T12:55:42.773Z,33.20
2022-08-11T12:59:23.936Z,39.47
2022-08-11T13:02:49.780Z,43.36
2022-08-11T13:05:55.045Z,46.09
2022-08-11T13:09:01.484Z,46.98
2022-08-11T13:12:22.319Z,47.05
2022-08-11T13:15:26.215Z,48.57
2022-08-11T13:18:31.205Z,47.32
2022-08-11T13:21:34.022Z,48.58
2022-08-11T13:24:37.209Z,49.80
2022-08-11T13:27:40.048Z,51.83
2022-08-11T13:31:01.845Z,52.43
2022-08-11T13:34:08.962Z,50.47
2022-08-11T13:37:14.356Z,51.62
2022-08-11T13:40:27.775Z,52.41
2022-08-11T13:43:35.998Z,51.40
2022-08-11T13:46:38.962Z,51.76
2022-08-11T13:49:45.182Z,52.20
2022-08-11T13:52:53.120Z,52.11
2022-08-11T13:55:56.846Z,51.39
2022-08-11T13:59:00.833Z,53.38
2022-08-11T14:02:21.965Z,53.39
2022-08-11T14:05:34.256Z,53.30
2022-08-11T14:08:41.786Z,51.97
2022-08-11T14:12:21.845Z,50.76
2022-08-11T14:15:30.023Z,52.43
2022-08-11T14:18:34.052Z,52.34
2022-08-11T14:22:03.693Z,52.11
2022-08-11T14:25:10.568Z,49.28
2022-08-11T14:28:34.080Z,50.03
2022-08-11T14:31:39.284Z,51.94
2022-08-11T14:34:44.739Z,53.25
2022-08-11T14:37:49.250Z,52.23
2022-08-11T14:41:10.537Z,51.90
2022-08-11T14:44:31.027Z,49.34
2022-08-11T14:47:35.284Z,49.20
2022-08-11T14:50:38.191Z,50.26
2022-08-11T14:53:58.205Z,51.78
2022-08-11T14:57:03.354Z,53.77
2022-08-11T15:00:08.014Z,54.74
2022-08-11T15:03:13.182Z,52.20
2022-08-11T15:06:16.303Z,50.83
2022-08-11T15:09:20.440Z,50.84
2022-08-11T15:12:31.154Z,50.39
2022-08-11T15:15:55.631Z,52.86
2022-08-11T15:18:59.071Z,50.87
2022-08-11T15:22:22.860Z,50.16
2022-08-11T15:25:30.765Z,51.24
2022-08-11T15:28:55.685Z,52.19
2022-08-11T15:32:16.024Z,52.80
2022-08-11T15:35:39.258Z,55.08
2022-08-11T15:38:45.962Z,53.47
2022-08-11T15:42:12.734Z,53.09
2022-08-11T15:45:34.409Z,53.28
2022-08-11T15:48:42.601Z,50.99
2022-08-11T15:51:48.372Z,51.36
2022-08-11T15:54:51.348Z,51.58
2022-08-11T15:58:14.210Z,52.85
2022-08-11T16:01:34.881Z,53.11
2022-08-11T16:04:38.592Z,52.77
2022-08-11T16:07:42.841Z,53.35
2022-08-11T16:10:47.734Z,51.20
2022-08-11T16:14:13.160Z,51.75
2022-08-11T16:17:17.097Z,50.26
2022-08-11T16:20:25.173Z,50.48
2022-08-11T16:23:29.189Z,49.32
2022-08-11T16:27:10.438Z,48.30
2022-08-11T16:29:57.384Z,46.09
2022-08-11T16:33:48.331Z,48.40
2022-08-11T16:36:45.179Z,49.43
2022-08-11T16:39:51.147Z,48.19
2022-08-11T16:43:12.266Z,49.04
2022-08-11T16:46:36.597Z,48.60
2022-08-11T16:49:42.983Z,46.56
2022-08-11T16:52:52.300Z,44.01
2022-08-11T16:55:56.133Z,46.01
2022-08-11T16:59:17.586Z,45.76
2022-08-11T17:02:37.048Z,44.91
2022-08-11T17:06:01.313Z,44.70
2022-08-11T17:09:22.244Z,39.74
2022-08-11T17:12:44.750Z,37.03
2022-08-11T17:16:10.128Z,35.10
2022-08-11T17:19:15.590Z,33.96
2022-08-11T17:22:37.340Z,33.10
2022-08-11T17:25:59.447Z,32.51
2022-08-11T17:29:04.336Z,32.06
2022-08-11T17:32:26.624Z,31.66
2022-08-11T17:35:38.653Z,31.24
2022-08-11T17:38:42.835Z,30.98
2022-08-11T17:42:09.162Z,30.83
2022-08-11T17:45:30.348Z,30.59
2022-08-11T17:48:38.038Z,30.42
2022-08-11T17:52:10.525Z,30.21
2022-08-11T17:55:52.451Z,29.84
2022-08-11T17:59:13.207Z,29.64
2022-08-11T18:02:34.738Z,29.37
2022-08-11T18:05:39.232Z,29.18
2022-08-11T18:09:02.918Z,28.93
2022-08-11T18:12:25.482Z,28.66
2022-08-11T18:15:49.920Z,28.38
2022-08-11T18:19:11.539Z,28.12
2022-08-11T18:22:34.766Z,27.97
2022-08-11T18:25:59.559Z,27.83
2022-08-11T18:29:19.757Z,27.66
2022-08-11T18:32:49.559Z,27.43
2022-08-11T18:36:12.955Z,27.19
2022-08-11T18:39:34.144Z,26.90
2022-08-11T18:42:56.831Z,26.72
2022-08-11T18:46:20.460Z,26.42
2022-08-11T18:50:03.973Z,26.21
2022-08-11T18:53:26.305Z,25.93
2022-08-11T18:56:48.864Z,25.76
2022-08-11T19:00:12.482Z,25.59
2022-08-11T19:03:43.347Z,25.56
2022-08-11T19:07:15.461Z,25.45
2022-08-11T19:10:38.562Z,25.18
2022-08-11T19:14:00.118Z,24.90
2022-08-11T19:17:44.312Z,24.68
2022-08-11T19:21:04.344Z,24.65
2022-08-11T19:24:26.014Z,24.64
2022-08-11T19:27:47.352Z,24.63
2022-08-11T19:31:07.447Z,24.53
2022-08-11T19:34:30.121Z,24.51
2022-08-11T19:37:51.047Z,24.39
2022-08-11T19:41:11.859Z,24.25
2022-08-11T19:44:33.603Z,24.23
2022-08-11T19:48:08.141Z,24.13
2022-08-11T19:51:36.529Z,24.05
2022-08-11T19:54:57.755Z,23.99
2022-08-11T19:58:18.311Z,23.73
2022-08-11T20:01:38.670Z,23.54
2022-08-11T20:05:19.318Z,23.34
2022-08-11T20:08:42.832Z,23.24
2022-08-11T20:12:05.867Z,23.08
2022-08-11T20:15:27.642Z,23.02
2022-08-11T20:18:48.706Z,22.94
2022-08-11T20:22:09.824Z,22.82
2022-08-11T20:25:33.450Z,22.94
2022-08-11T20:28:54.370Z,22.77
2022-08-11T20:32:14.604Z,22.70
2022-08-11T20:35:35.604Z,22.60
2022-08-11T20:38:57.179Z,22.58
2022-08-11T20:42:20.205Z,22.36
2022-08-11T20:45:55.274Z,22.53
2022-08-11T20:49:18.128Z,22.43
2022-08-11T20:52:40.280Z,22.34
2022-08-11T20:56:00.887Z,22.24
2022-08-11T21:03:11.217Z,22.06
2022-08-11T21:06:33.484Z,22.17
2022-08-11T21:09:58.313Z,22.03
2022-08-11T21:13:27.065Z,22.03
2022-08-11T21:16:53.541Z,21.83
2022-08-11T21:20:20.717Z,21.71
2022-08-11T21:23:42.286Z,21.81
2022-08-11T21:27:04.407Z,21.77
2022-08-11T21:30:26.893Z,21.83
2022-08-11T21:33:50.577Z,21.88
2022-08-11T21:37:10.942Z,21.89
2022-08-11T21:40:33.287Z,22.04
2022-08-11T21:43:54.114Z,21.87
2022-08-11T21:47:18.443Z,21.72
2022-08-11T21:50:42.697Z,21.52
2022-08-11T21:54:03.512Z,21.55
2022-08-11T21:57:25.205Z,21.47
2022-08-11T22:00:45.535Z,21.51
2022-08-11T22:04:06.230Z,21.59
2022-08-11T22:07:28.458Z,21.63
2022-08-11T22:10:50.933Z,21.77
2022-08-11T22:14:11.271Z,21.74
2022-08-11T22:17:31.781Z,21.74
2022-08-11T22:20:52.383Z,21.80
2022-08-11T22:24:14.766Z,21.78
2022-08-11T22:27:38.659Z,21.89
2022-08-11T22:30:59.062Z,21.76
2022-08-11T22:34:20.643Z,21.75
2022-08-11T22:37:40.973Z,21.67
2022-08-11T22:41:02.939Z,21.71
2022-08-11T22:44:23.303Z,21.77
2022-08-11T22:47:45.149Z,21.83
2022-08-11T22:51:05.524Z,21.94
2022-08-11T22:54:27.358Z,21.99
2022-08-11T22:58:00.144Z,22.10
2022-08-11T23:01:21.894Z,21.89
2022-08-11T23:04:42.515Z,21.67
2022-08-11T23:08:03.965Z,21.48
2022-08-11T23:11:24.811Z,21.63
2022-08-11T23:14:46.529Z,21.52
2022-08-11T23:18:06.890Z,21.22
2022-08-11T23:21:27.309Z,21.07
2022-08-11T23:24:47.710Z,20.91
2022-08-11T23:28:08.207Z,20.66
2022-08-11T23:31:30.119Z,20.58
2022-08-11T23:35:38.591Z,20.55
2022-08-11T23:38:54.120Z,20.38
2022-08-11T23:42:14.527Z,20.30
2022-08-11T23:45:35.505Z,20.16
2022-08-11T23:48:57.762Z,20.20
2022-08-11T23:52:18.656Z,20.02
2022-08-11T23:55:39.374Z,20.01
2022-08-11T23:58:59.646Z,19.85
